ADDS METAR Data INFO
IDs: Format: Raw Decoded Include TAF

Data at: 0047 UTC 22 Oct 2017

KSAT 212351Z 15008KT 10SM FEW050 FEW160 29/18 A2986 RMK AO2 SLP092 T02890183 10317 20272 51001